createdAt,value
2022-12-27T00:01:17.538Z,5.30
2022-12-27T00:03:44.550Z,5.16
2022-12-27T00:06:15.239Z,5.06
2022-12-27T00:08:42.511Z,5.10
2022-12-27T00:11:12.017Z,5.16
2022-12-27T00:13:38.707Z,5.15
2022-12-27T00:16:06.915Z,5.10
2022-12-27T00:18:34.291Z,5.13
2022-12-27T00:21:02.703Z,5.10
2022-12-27T00:23:33.077Z,5.23
2022-12-27T00:26:15.999Z,5.21
2022-12-27T00:28:44.862Z,5.14
2022-12-27T00:31:12.053Z,5.08
2022-12-27T00:33:39.863Z,5.18
2022-12-27T00:36:08.253Z,5.22
2022-12-27T00:38:36.016Z,5.20
2022-12-27T00:41:03.672Z,5.14
2022-12-27T00:43:30.436Z,5.24
2022-12-27T00:45:57.520Z,5.20
2022-12-27T00:48:25.859Z,5.19
2022-12-27T00:50:59.329Z,5.15
2022-12-27T00:53:26.499Z,5.12
2022-12-27T00:55:53.021Z,5.00
2022-12-27T00:58:19.412Z,4.98
2022-12-27T01:00:45.973Z,4.94
2022-12-27T01:03:12.435Z,4.88
2022-12-27T01:05:39.505Z,4.80
2022-12-27T01:08:06.113Z,4.78
2022-12-27T01:10:33.296Z,4.73
2022-12-27T01:13:03.828Z,4.85
2022-12-27T01:15:30.474Z,4.93
2022-12-27T01:17:56.895Z,4.92
2022-12-27T01:20:23.795Z,4.93
2022-12-27T01:22:50.266Z,4.92
2022-12-27T01:25:16.884Z,4.98
2022-12-27T01:27:43.411Z,4.94
2022-12-27T01:30:10.514Z,4.86
2022-12-27T01:32:37.093Z,4.90
2022-12-27T01:35:03.703Z,4.78
2022-12-27T01:37:30.346Z,4.86
2022-12-27T01:39:56.826Z,4.69
2022-12-27T01:42:41.953Z,4.69
2022-12-27T01:45:36.724Z,4.64
2022-12-27T01:48:19.465Z,4.59
2022-12-27T01:50:52.644Z,4.50
2022-12-27T01:53:29.985Z,4.55
2022-12-27T01:55:59.385Z,4.51
2022-12-27T01:58:37.875Z,4.47
2022-12-27T02:01:06.624Z,4.54
2022-12-27T02:03:36.071Z,4.60
2022-12-27T02:06:04.768Z,4.54
2022-12-27T02:09:48.699Z,4.38
2022-12-27T02:12:18.131Z,4.26
2022-12-27T02:14:47.023Z,4.18
2022-12-27T02:17:17.746Z,4.13
2022-12-27T02:20:11.407Z,4.03
2022-12-27T02:23:08.999Z,3.94
2022-12-27T02:25:50.739Z,3.88
2022-12-27T02:28:55.078Z,3.83
2022-12-27T02:31:28.530Z,3.85
2022-12-27T02:33:56.368Z,3.93
2022-12-27T02:36:28.086Z,4.00
2022-12-27T02:38:57.031Z,4.04
2022-12-27T02:41:42.807Z,4.06
2022-12-27T02:44:28.042Z,4.07
2022-12-27T02:47:13.285Z,4.24
2022-12-27T02:50:01.382Z,4.17
2022-12-27T02:53:05.200Z,4.08
2022-12-27T02:56:48.778Z,4.15
2022-12-27T02:59:22.399Z,4.14
2022-12-27T03:02:23.098Z,4.17
2022-12-27T03:05:20.124Z,4.08
2022-12-27T03:07:55.669Z,4.01
2022-12-27T03:10:53.052Z,4.03
2022-12-27T03:13:44.507Z,3.87
2022-12-27T03:16:25.438Z,3.85
2022-12-27T03:19:06.337Z,3.80
2022-12-27T03:21:58.614Z,3.78
2022-12-27T03:24:49.978Z,3.75
2022-12-27T03:27:28.545Z,3.76
2022-12-27T03:30:15.467Z,3.70
2022-12-27T03:33:13.444Z,3.71
2022-12-27T03:36:22.586Z,3.69
2022-12-27T03:38:55.532Z,3.68
2022-12-27T03:41:47.416Z,3.72
2022-12-27T03:44:34.417Z,3.62
2022-12-27T03:47:22.181Z,3.47
2022-12-27T03:49:53.755Z,3.38
2022-12-27T03:52:23.720Z,3.33
2022-12-27T03:54:51.194Z,3.34
2022-12-27T03:57:20.352Z,3.32
2022-12-27T03:59:47.119Z,3.39
2022-12-27T04:02:13.878Z,3.48
2022-12-27T04:04:40.557Z,3.56
2022-12-27T04:07:07.591Z,3.56
2022-12-27T04:09:52.846Z,3.46
2022-12-27T04:12:38.346Z,3.47
2022-12-27T04:15:23.910Z,3.43
2022-12-27T04:18:08.680Z,3.39
2022-12-27T04:20:53.639Z,3.44
2022-12-27T04:23:38.588Z,3.42
2022-12-27T04:26:23.817Z,3.39
2022-12-27T04:29:09.029Z,3.33
2022-12-27T04:31:54.033Z,3.28
2022-12-27T04:34:38.807Z,3.25
2022-12-27T04:37:05.882Z,3.21
2022-12-27T04:39:32.576Z,3.20
2022-12-27T04:42:17.764Z,3.11
2022-12-27T04:45:02.947Z,3.02
2022-12-27T04:47:48.349Z,2.98
2022-12-27T04:50:48.203Z,2.93
2022-12-27T04:53:38.599Z,2.96
2022-12-27T04:56:06.176Z,2.94
2022-12-27T04:58:33.128Z,2.87
2022-12-27T05:01:21.235Z,2.85
2022-12-27T05:03:49.522Z,2.92
2022-12-27T05:06:16.877Z,3.03
2022-12-27T05:09:02.199Z,3.06
2022-12-27T05:11:47.352Z,3.08
2022-12-27T05:14:15.191Z,3.22
2022-12-27T05:16:44.290Z,3.26
2022-12-27T05:19:12.899Z,3.30
2022-12-27T05:22:03.929Z,3.36
2022-12-27T05:24:49.412Z,3.58
2022-12-27T05:27:16.461Z,3.56
2022-12-27T05:29:43.024Z,3.60
2022-12-27T05:32:12.992Z,3.65
2022-12-27T05:34:40.356Z,3.72
2022-12-27T05:37:06.782Z,3.66
2022-12-27T05:39:33.251Z,3.74
2022-12-27T05:41:59.734Z,3.74
2022-12-27T05:44:26.489Z,3.85
2022-12-27T05:46:54.385Z,3.81
2022-12-27T05:49:20.828Z,3.84
2022-12-27T05:51:47.619Z,3.86
2022-12-27T05:54:14.127Z,3.87
2022-12-27T05:56:41.214Z,3.88
2022-12-27T05:59:08.157Z,3.97
2022-12-27T06:01:34.928Z,3.86
2022-12-27T06:04:01.938Z,3.87
2022-12-27T06:06:28.935Z,3.88
2022-12-27T06:08:55.455Z,3.99
2022-12-27T06:11:21.985Z,3.98
2022-12-27T06:13:53.466Z,4.02
2022-12-27T06:16:21.039Z,3.96
2022-12-27T06:18:47.556Z,3.95
2022-12-27T06:21:16.950Z,3.99
2022-12-27T06:23:45.120Z,3.88
2022-12-27T06:26:23.220Z,3.79
2022-12-27T06:28:50.604Z,3.76
2022-12-27T06:31:18.918Z,3.59
2022-12-27T06:33:46.531Z,3.60
2022-12-27T06:36:14.909Z,3.43
2022-12-27T06:38:41.372Z,3.41
2022-12-27T06:41:10.391Z,3.40
2022-12-27T06:43:37.013Z,3.34
2022-12-27T06:46:06.263Z,3.32
2022-12-27T06:48:32.786Z,3.32
2022-12-27T06:50:59.310Z,3.29
2022-12-27T06:53:25.767Z,3.25
2022-12-27T06:55:52.177Z,3.28
2022-12-27T06:58:18.668Z,3.26
2022-12-27T07:00:45.160Z,3.26
2022-12-27T07:03:11.848Z,3.24
2022-12-27T07:05:38.543Z,3.24
2022-12-27T07:08:05.787Z,3.24
2022-12-27T07:10:32.530Z,3.23
2022-12-27T07:12:59.248Z,3.22
2022-12-27T07:15:25.690Z,3.28
2022-12-27T07:17:52.129Z,3.34
2022-12-27T07:20:18.663Z,3.30
2022-12-27T07:22:45.104Z,3.37
2022-12-27T07:25:11.473Z,3.40
2022-12-27T07:27:38.034Z,3.36
2022-12-27T07:30:05.462Z,3.34
2022-12-27T07:32:31.890Z,3.39
2022-12-27T07:34:58.321Z,3.39
2022-12-27T07:37:24.766Z,3.48
2022-12-27T07:40:00.061Z,3.41
2022-12-27T07:42:28.625Z,3.39
2022-12-27T07:44:55.285Z,3.46
2022-12-27T07:47:21.728Z,3.53
2022-12-27T07:49:48.108Z,3.63
2022-12-27T07:52:14.513Z,3.69
2022-12-27T07:54:41.703Z,3.70
2022-12-27T07:57:08.221Z,3.71
2022-12-27T07:59:34.623Z,3.76
2022-12-27T08:02:04.096Z,3.75
2022-12-27T08:04:31.947Z,3.85
2022-12-27T08:07:07.803Z,4.09
2022-12-27T08:09:36.967Z,4.19
2022-12-27T08:12:03.910Z,4.16
2022-12-27T08:14:30.609Z,4.19
2022-12-27T08:16:59.685Z,4.34
2022-12-27T08:19:26.100Z,4.27
2022-12-27T08:21:52.454Z,4.35
2022-12-27T08:24:18.942Z,4.40
2022-12-27T08:26:45.445Z,4.56
2022-12-27T08:29:11.818Z,4.56
2022-12-27T08:31:38.225Z,4.62
2022-12-27T08:34:04.873Z,4.73
2022-12-27T08:39:18.368Z,4.83
2022-12-27T08:41:45.038Z,4.94
2022-12-27T08:44:11.851Z,4.96
2022-12-27T08:46:38.733Z,5.06
2022-12-27T08:49:05.988Z,4.97
2022-12-27T08:51:40.318Z,5.06
2022-12-27T08:54:07.840Z,5.01
2022-12-27T08:56:34.282Z,5.03
2022-12-27T08:59:00.784Z,5.04
2022-12-27T09:01:27.518Z,5.04
2022-12-27T09:03:54.258Z,5.06
2022-12-27T09:06:22.367Z,5.09
2022-12-27T09:08:49.873Z,5.04
2022-12-27T09:11:24.523Z,5.19
2022-12-27T09:13:51.100Z,5.15
2022-12-27T09:16:20.263Z,5.16
2022-12-27T09:18:52.435Z,5.21
2022-12-27T09:21:20.191Z,5.20
2022-12-27T09:23:47.781Z,5.29
2022-12-27T09:26:16.978Z,5.23
2022-12-27T09:28:43.765Z,5.32
2022-12-27T09:31:11.760Z,5.49
2022-12-27T09:33:38.549Z,5.71
2022-12-27T09:36:07.413Z,5.70
2022-12-27T09:38:34.658Z,5.65
2022-12-27T09:41:04.913Z,5.73
2022-12-27T09:43:34.458Z,6.28
2022-12-27T09:46:02.383Z,7.24
2022-12-27T09:48:36.770Z,7.69
2022-12-27T09:51:25.714Z,7.17
2022-12-27T09:53:59.475Z,6.64
2022-12-27T09:56:47.349Z,6.25
2022-12-27T09:59:29.003Z,6.25
2022-12-27T10:01:55.853Z,6.22
2022-12-27T10:04:22.558Z,6.46
2022-12-27T10:06:48.955Z,6.48
2022-12-27T10:09:27.656Z,7.05
2022-12-27T10:12:31.594Z,8.28
2022-12-27T10:15:28.082Z,9.87
2022-12-27T10:18:08.863Z,9.56
2022-12-27T10:20:54.592Z,8.97
2022-12-27T10:23:24.733Z,8.14
2022-12-27T10:26:04.895Z,7.66
2022-12-27T10:28:46.405Z,7.60
2022-12-27T10:31:18.515Z,7.69
2022-12-27T10:33:46.235Z,7.78
2022-12-27T10:36:15.561Z,8.57
2022-12-27T10:38:42.253Z,9.71
2022-12-27T10:41:38.309Z,10.15
2022-12-27T10:44:10.993Z,11.21
2022-12-27T10:46:38.288Z,12.45
2022-12-27T10:49:26.421Z,12.63
2022-12-27T10:51:56.922Z,11.83
2022-12-27T10:54:30.221Z,12.51
2022-12-27T10:56:57.377Z,13.07
2022-12-27T10:59:26.046Z,13.05
2022-12-27T11:02:02.399Z,11.96
2022-12-27T11:04:30.575Z,11.47
2022-12-27T11:07:00.012Z,12.05
2022-12-27T11:09:37.664Z,12.00
2022-12-27T11:12:26.110Z,12.87
2022-12-27T11:15:00.964Z,12.80
2022-12-27T11:17:29.309Z,13.17
2022-12-27T11:19:58.741Z,12.78
2022-12-27T11:22:25.897Z,12.53
2022-12-27T11:24:53.657Z,13.46
2022-12-27T11:27:25.675Z,13.22
2022-12-27T11:29:54.149Z,14.36
2022-12-27T11:32:23.297Z,13.90
2022-12-27T11:34:52.723Z,13.11
2022-12-27T11:37:21.217Z,12.85
2022-12-27T11:39:53.299Z,12.45
2022-12-27T11:42:29.056Z,12.72
2022-12-27T11:45:06.880Z,11.48
2022-12-27T11:47:51.355Z,10.29
2022-12-27T11:50:27.267Z,9.41
2022-12-27T11:52:59.051Z,8.51
2022-12-27T11:55:47.029Z,8.33
2022-12-27T11:58:38.026Z,8.10
2022-12-27T12:01:25.610Z,8.21
2022-12-27T12:04:25.641Z,8.18
2022-12-27T12:07:12.194Z,8.69
2022-12-27T12:09:56.781Z,8.47
2022-12-27T12:12:35.443Z,8.26
2022-12-27T12:15:23.201Z,8.15
2022-12-27T12:18:01.557Z,8.06
2022-12-27T12:21:08.517Z,7.92
2022-12-27T12:24:14.555Z,7.64
2022-12-27T12:27:19.307Z,7.55
2022-12-27T12:30:11.767Z,7.56
2022-12-27T12:33:14.465Z,7.52
2022-12-27T12:36:01.707Z,7.53
2022-12-27T12:38:48.513Z,7.63
2022-12-27T12:41:53.382Z,7.67
2022-12-27T12:44:41.266Z,7.51
2022-12-27T12:47:31.555Z,7.46
2022-12-27T12:50:13.142Z,7.74
2022-12-27T12:53:18.076Z,7.83
2022-12-27T12:55:58.892Z,8.02
2022-12-27T12:58:41.643Z,8.07
2022-12-27T13:01:08.217Z,7.58
2022-12-27T13:03:48.201Z,7.58
2022-12-27T13:06:40.358Z,7.58
2022-12-27T13:09:30.179Z,7.58
2022-12-27T13:12:09.911Z,7.54
2022-12-27T13:15:08.866Z,7.44
2022-12-27T13:17:54.362Z,7.37
2022-12-27T13:20:40.148Z,7.35
2022-12-27T13:23:44.117Z,7.23
2022-12-27T13:26:21.048Z,7.14
2022-12-27T13:28:58.821Z,7.25
2022-12-27T13:31:34.839Z,7.11
2022-12-27T13:34:14.591Z,7.15
2022-12-27T13:37:08.975Z,7.16
2022-12-27T13:39:43.016Z,7.15
2022-12-27T13:42:44.280Z,7.25
2022-12-27T13:45:38.066Z,7.27
2022-12-27T13:48:33.872Z,7.29
2022-12-27T13:51:31.661Z,7.33
2022-12-27T13:54:06.091Z,7.22
2022-12-27T13:56:54.479Z,7.22
2022-12-27T13:59:49.573Z,7.24
2022-12-27T14:02:38.571Z,7.20
2022-12-27T14:05:23.003Z,7.21
2022-12-27T14:08:17.439Z,7.23
2022-12-27T14:10:55.233Z,7.45
2022-12-27T14:13:45.426Z,7.53
2022-12-27T14:16:59.067Z,7.56
2022-12-27T14:19:47.722Z,7.65
2022-12-27T14:22:37.302Z,7.41
2022-12-27T14:25:25.642Z,7.32
2022-12-27T14:28:21.637Z,7.32
2022-12-27T14:30:51.153Z,7.28
2022-12-27T14:33:44.909Z,7.22
2022-12-27T14:36:41.886Z,7.04
2022-12-27T14:39:31.508Z,6.92
2022-12-27T14:42:29.058Z,6.83
2022-12-27T14:45:49.079Z,6.90
2022-12-27T14:48:54.009Z,6.97
2022-12-27T14:52:10.539Z,6.87
2022-12-27T14:55:10.842Z,6.93
2022-12-27T14:57:46.235Z,7.01
2022-12-27T15:00:19.854Z,6.85
2022-12-27T15:03:09.661Z,6.68
2022-12-27T15:05:56.073Z,6.67
2022-12-27T15:08:56.237Z,6.51
2022-12-27T15:11:43.652Z,6.44
2022-12-27T15:14:37.063Z,6.38
2022-12-27T15:17:25.810Z,6.52
2022-12-27T15:20:11.218Z,6.36
2022-12-27T15:22:53.549Z,6.31
2022-12-27T15:25:22.230Z,6.15
2022-12-27T15:28:07.250Z,6.10
2022-12-27T15:30:51.750Z,6.04
2022-12-27T15:33:36.560Z,5.91
2022-12-27T15:36:06.584Z,5.80
2022-12-27T15:38:53.848Z,5.66
2022-12-27T15:41:30.368Z,5.61
2022-12-27T15:44:15.224Z,5.54
2022-12-27T15:47:26.697Z,5.39
2022-12-27T15:50:30.847Z,5.27
2022-12-27T15:53:18.096Z,5.13
2022-12-27T15:55:57.046Z,5.07
2022-12-27T15:58:24.285Z,5.05
2022-12-27T16:01:21.842Z,4.95
2022-12-27T16:03:52.559Z,4.87
2022-12-27T16:06:34.452Z,4.82
2022-12-27T16:09:25.882Z,4.76
2022-12-27T16:12:07.569Z,4.81
2022-12-27T16:14:36.727Z,5.00
2022-12-27T16:17:24.896Z,5.09
2022-12-27T16:19:56.491Z,5.00
2022-12-27T16:22:29.072Z,4.97
2022-12-27T16:24:56.148Z,5.01
2022-12-27T16:27:29.558Z,4.90
2022-12-27T16:29:56.909Z,4.95
2022-12-27T16:32:25.860Z,4.92
2022-12-27T16:34:57.957Z,4.95
2022-12-27T16:37:44.463Z,4.91
2022-12-27T16:40:26.779Z,4.68
2022-12-27T16:42:56.151Z,4.63
2022-12-27T16:45:37.720Z,4.46
2022-12-27T16:48:22.797Z,4.39
2022-12-27T16:50:57.121Z,4.32
2022-12-27T16:53:38.636Z,4.15
2022-12-27T16:56:14.565Z,4.02
2022-12-27T16:58:41.179Z,3.93
2022-12-27T17:01:26.230Z,3.83
2022-12-27T17:03:54.527Z,3.81
2022-12-27T17:06:31.696Z,3.71
2022-12-27T17:09:08.390Z,3.68
2022-12-27T17:11:41.383Z,3.57
2022-12-27T17:14:19.431Z,3.36
2022-12-27T17:16:48.618Z,3.44
2022-12-27T17:19:19.538Z,3.28
2022-12-27T17:21:46.811Z,3.34
2022-12-27T17:24:20.944Z,3.16
2022-12-27T17:27:08.839Z,3.13
2022-12-27T17:30:15.073Z,3.08
2022-12-27T17:33:16.759Z,3.02
2022-12-27T17:36:08.942Z,3.16
2022-12-27T17:38:55.272Z,3.29
2022-12-27T17:42:02.187Z,3.23
2022-12-27T17:44:40.656Z,3.17
2022-12-27T17:47:16.888Z,3.16
2022-12-27T17:49:43.344Z,3.15
2022-12-27T17:52:35.253Z,3.43
2022-12-27T17:55:39.823Z,3.34
2022-12-27T17:58:16.023Z,3.32
2022-12-27T18:01:01.169Z,3.27
2022-12-27T18:03:35.724Z,3.16
2022-12-27T18:06:02.456Z,3.07
2022-12-27T18:08:32.661Z,3.02
2022-12-27T18:11:00.693Z,3.03
2022-12-27T18:13:29.990Z,2.97
2022-12-27T18:15:57.323Z,2.90
2022-12-27T18:18:28.346Z,2.93
2022-12-27T18:20:58.141Z,2.96
2022-12-27T18:23:24.732Z,2.99
2022-12-27T18:26:14.337Z,2.95
2022-12-27T18:28:41.819Z,3.03
2022-12-27T18:31:24.557Z,2.93
2022-12-27T18:33:53.992Z,2.96
2022-12-27T18:36:46.573Z,2.95
2022-12-27T18:39:27.017Z,2.97
2022-12-27T18:41:54.206Z,3.01
2022-12-27T18:44:27.693Z,2.93
2022-12-27T18:46:58.364Z,3.02
2022-12-27T18:49:27.561Z,3.10
2022-12-27T18:51:55.092Z,3.25
2022-12-27T18:54:27.829Z,3.26
2022-12-27T18:56:56.280Z,3.25
2022-12-27T18:59:27.950Z,3.30
2022-12-27T19:01:56.984Z,3.22
2022-12-27T19:04:33.276Z,3.24
2022-12-27T19:07:11.685Z,3.24
2022-12-27T19:09:58.068Z,3.15
2022-12-27T19:12:34.065Z,3.14
2022-12-27T19:15:01.705Z,3.12
2022-12-27T19:17:31.114Z,3.25
2022-12-27T19:20:06.938Z,3.43
2022-12-27T19:22:46.267Z,3.44
2022-12-27T19:25:33.930Z,3.55
2022-12-27T19:28:09.503Z,3.51
2022-12-27T19:30:47.885Z,3.60
2022-12-27T19:33:22.716Z,3.81
2022-12-27T19:35:49.179Z,3.78
2022-12-27T19:38:21.048Z,3.75
2022-12-27T19:43:27.398Z,3.77
2022-12-27T19:45:54.157Z,3.87
2022-12-27T19:48:20.718Z,3.72
2022-12-27T19:50:53.110Z,3.61
2022-12-27T19:53:28.760Z,3.53
2022-12-27T19:55:55.149Z,3.48
2022-12-27T19:58:23.421Z,3.54
2022-12-27T20:00:50.135Z,3.37
2022-12-27T20:03:16.909Z,3.58
2022-12-27T20:06:14.860Z,3.73
2022-12-27T20:08:50.503Z,4.15
2022-12-27T20:11:19.300Z,4.17
2022-12-27T20:13:46.070Z,4.26
2022-12-27T20:16:14.509Z,4.37
2022-12-27T20:18:41.535Z,4.39
2022-12-27T20:21:12.151Z,4.46
2022-12-27T20:23:38.895Z,4.44
2022-12-27T20:26:05.367Z,4.38
2022-12-27T20:28:32.969Z,4.30
2022-12-27T20:30:59.579Z,4.25
2022-12-27T20:33:26.195Z,4.50
2022-12-27T20:35:57.342Z,4.66
2022-12-27T20:38:24.938Z,4.64
2022-12-27T20:40:51.684Z,4.73
2022-12-27T20:43:18.631Z,4.63
2022-12-27T20:45:46.259Z,4.62
2022-12-27T20:48:12.996Z,4.61
2022-12-27T20:50:40.210Z,4.67
2022-12-27T20:53:07.223Z,4.75
2022-12-27T20:55:34.400Z,4.74
2022-12-27T20:58:01.397Z,4.66
2022-12-27T21:00:28.209Z,4.58
2022-12-27T21:02:54.820Z,4.54
2022-12-27T21:05:21.393Z,4.57
2022-12-27T21:07:47.963Z,4.44
2022-12-27T21:10:14.983Z,4.38
2022-12-27T21:12:41.580Z,4.72
2022-12-27T21:15:08.606Z,4.67
2022-12-27T21:17:35.074Z,4.56
2022-12-27T21:20:01.712Z,4.64
2022-12-27T21:22:28.267Z,4.65
2022-12-27T21:24:54.757Z,4.56
2022-12-27T21:27:21.155Z,4.57
2022-12-27T21:29:47.850Z,4.48
2022-12-27T21:32:14.460Z,4.40
2022-12-27T21:34:41.301Z,4.53
2022-12-27T21:37:12.985Z,4.44
2022-12-27T21:39:40.078Z,4.39
2022-12-27T21:42:06.614Z,4.34
2022-12-27T21:44:35.419Z,4.35
2022-12-27T21:47:02.216Z,4.35
2022-12-27T21:49:29.070Z,4.31
2022-12-27T21:51:55.749Z,4.24
2022-12-27T21:54:22.251Z,4.13
2022-12-27T21:56:48.783Z,4.10
2022-12-27T21:59:15.341Z,4.04
2022-12-27T22:01:51.941Z,3.96
2022-12-27T22:04:22.182Z,4.00
2022-12-27T22:06:48.863Z,3.92
2022-12-27T22:09:16.176Z,3.89
2022-12-27T22:11:42.612Z,3.93
2022-12-27T22:14:09.109Z,3.87
2022-12-27T22:16:38.021Z,3.76
2022-12-27T22:19:09.123Z,3.68
2022-12-27T22:21:36.560Z,3.59
2022-12-27T22:24:04.460Z,3.52
2022-12-27T22:26:33.825Z,3.76
2022-12-27T22:29:00.403Z,3.79
2022-12-27T22:31:32.931Z,3.74
2022-12-27T22:33:59.773Z,3.75
2022-12-27T22:36:27.132Z,3.69
2022-12-27T22:38:57.811Z,3.75
2022-12-27T22:41:29.509Z,3.88
2022-12-27T22:44:07.763Z,4.08
2022-12-27T22:49:21.454Z,3.94
2022-12-27T22:51:48.037Z,3.96
2022-12-27T22:54:14.526Z,3.92
2022-12-27T22:56:42.282Z,3.87
2022-12-27T22:59:11.632Z,3.93
2022-12-27T23:01:38.804Z,3.94
2022-12-27T23:04:06.333Z,3.98
2022-12-27T23:06:35.160Z,3.99
2022-12-27T23:09:03.871Z,4.00
2022-12-27T23:11:35.578Z,3.90
2022-12-27T23:14:05.643Z,3.88
2022-12-27T23:16:39.709Z,3.84
2022-12-27T23:19:06.729Z,3.98
2022-12-27T23:21:33.284Z,3.90
2022-12-27T23:23:59.784Z,3.82
2022-12-27T23:26:27.030Z,4.07
2022-12-27T23:28:53.671Z,4.12
2022-12-27T23:31:22.025Z,4.17
2022-12-27T23:33:49.592Z,4.10
2022-12-27T23:36:16.623Z,4.20
2022-12-27T23:38:44.044Z,4.22
2022-12-27T23:41:15.143Z,4.01
2022-12-27T23:43:56.983Z,3.86
2022-12-27T23:46:27.591Z,3.75
2022-12-27T23:48:54.674Z,3.72
2022-12-27T23:51:21.654Z,3.60
2022-12-27T23:53:48.100Z,3.84
2022-12-27T23:56:16.286Z,3.74
2022-12-27T23:58:43.884Z,3.84
